Rochester, NY (14602)

8:17 AM EDT on July 24, 2016 (GMT -0400)
Portsmouth & University, NOTA | | Change Station

Elev 502 ft 43.15 °N, 77.58 °W | Updated 2 minutes ago

Mostly Cloudy
Mostly Cloudy
76.5 °F
Feels Like 78 °F
N
3.2
Wind Variable Wind from ESE

Today
High -- | Low -- °F
--% Chance of Precip.
Yesterday
High -- | Low -- °F
Precip. -- in
Pressure 30.04 in
Visibility 10.0 miles
Clouds Scattered Clouds 18000 ft
Mostly Cloudy 24000 ft
Heat Index 78 °F
Dew Point 66 °F
Humidity 70%
Rainfall 0.00 in
Snow Depth Not available.
5:53 AM 8:40 PM
Waning Gibbous, 77% visible
METAR KROC 241154Z 00000KT 10SM SCT180 BKN240 22/17 A3004 RMK AO2 SLP172 T02220167 10222 20172 51010
Pressure 30.04 in
Visibility 10.0 miles
Clouds Scattered Clouds 18000 ft
Mostly Cloudy 24000 ft
Heat Index 78 °F
Dew Point 66 °F
Humidity 70%
Rainfall 0.00 in
Snow Depth Not available.
5:53 AM 8:40 PM
Waning Gibbous, 77% visible
METAR KROC 241154Z 00000KT 10SM SCT180 BKN240 22/17 A3004 RMK AO2 SLP172 T02220167 10222 20172 51010

10-Day Weather Forecast

Almanac

Astronomy

Jul. 24, 2016 Rise Set
Actual Time
Civil Twilight
Nautical Twilight
Astronomical Twilight
Moon
Length of Visible Light
Length of Day
Tomorrow will be .
, % of the Moon is Illuminated

Today's Extremes

State Highs State Lows

Community

WunderPhotos

Upload Photos

1,927,053 photos uploaded!

WunderBlog® & News

Nearby

Air Quality

  Air Quality AQ Index Pollutant
Not available.

Snow Depth

Station Depth Elevation

Earthquake Activity

City Distance Mag. Time & Date
Minimum magnitude displayed is 2.5.

Coastal Water Temperatures

Place Temperature

Stations

Nearby Weather Stations

Station Location Temp. Windchill Dew Point Humidity Wind Precip. Elev Updated Type
                   

Watches & Warnings

There are currently no watches in effect.